sensor_id;sensor_type;location;lat;lon;timestamp;P1;durP1;ratioP1;P2;durP2;ratioP2
37791;SDS011;29527;55.766;37.570;2023-05-17T00:00:32;13.50;;;4.32;;
37791;SDS011;29527;55.766;37.570;2023-05-17T00:02:57;13.20;;;4.70;;
37791;SDS011;29527;55.766;37.570;2023-05-17T00:05:23;12.13;;;4.18;;
37791;SDS011;29527;55.766;37.570;2023-05-17T00:07:48;19.13;;;9.50;;
37791;SDS011;29527;55.766;37.570;2023-05-17T00:10:14;15.07;;;5.07;;
37791;SDS011;29527;55.766;37.570;2023-05-17T00:12:40;10.82;;;4.25;;
37791;SDS011;29527;55.766;37.570;2023-05-17T00:18:27;23.13;;;9.35;;
37791;SDS011;29527;55.766;37.570;2023-05-17T00:20:53;8.50;;;4.50;;
37791;SDS011;29527;55.766;37.570;2023-05-17T00:23:18;9.63;;;3.90;;
37791;SDS011;29527;55.766;37.570;2023-05-17T00:25:44;8.13;;;4.53;;
37791;SDS011;29527;55.766;37.570;2023-05-17T00:28:10;10.38;;;4.32;;
37791;SDS011;29527;55.766;37.570;2023-05-17T00:30:36;14.75;;;6.10;;
37791;SDS011;29527;55.766;37.570;2023-05-17T00:33:02;13.23;;;4.70;;
37791;SDS011;29527;55.766;37.570;2023-05-17T00:35:28;16.15;;;6.13;;
37791;SDS011;29527;55.766;37.570;2023-05-17T00:37:54;13.52;;;5.20;;
37791;SDS011;29527;55.766;37.570;2023-05-17T00:40:20;15.18;;;4.63;;
37791;SDS011;29527;55.766;37.570;2023-05-17T00:42:46;14.77;;;5.80;;
37791;SDS011;29527;55.766;37.570;2023-05-17T00:45:12;14.68;;;4.95;;
37791;SDS011;29527;55.766;37.570;2023-05-17T00:47:37;13.00;;;5.85;;
37791;SDS011;29527;55.766;37.570;2023-05-17T00:50:03;18.35;;;6.38;;
37791;SDS011;29527;55.766;37.570;2023-05-17T00:52:31;20.88;;;4.75;;
37791;SDS011;29527;55.766;37.570;2023-05-17T00:54:57;22.92;;;8.57;;
37791;SDS011;29527;55.766;37.570;2023-05-17T00:57:22;14.77;;;5.22;;
37791;SDS011;29527;55.766;37.570;2023-05-17T00:59:48;18.42;;;5.00;;
37791;SDS011;29527;55.766;37.570;2023-05-17T01:02:16;16.90;;;4.60;;
37791;SDS011;29527;55.766;37.570;2023-05-17T01:04:42;16.63;;;8.88;;
37791;SDS011;29527;55.766;37.570;2023-05-17T01:07:08;15.65;;;5.22;;
37791;SDS011;29527;55.766;37.570;2023-05-17T01:09:34;13.52;;;4.85;;
37791;SDS011;29527;55.766;37.570;2023-05-17T01:12:06;16.15;;;4.65;;
37791;SDS011;29527;55.766;37.570;2023-05-17T01:20:45;13.23;;;4.93;;
37791;SDS011;29527;55.766;37.570;2023-05-17T01:26:09;15.10;;;5.03;;
37791;SDS011;29527;55.766;37.570;2023-05-17T01:28:39;14.13;;;5.28;;
37791;SDS011;29527;55.766;37.570;2023-05-17T01:31:07;17.63;;;4.65;;
37791;SDS011;29527;55.766;37.570;2023-05-17T01:33:32;15.10;;;5.75;;
37791;SDS011;29527;55.766;37.570;2023-05-17T01:35:58;18.23;;;4.60;;
37791;SDS011;29527;55.766;37.570;2023-05-17T01:38:24;15.02;;;5.20;;
37791;SDS011;29527;55.766;37.570;2023-05-17T01:40:57;23.92;;;6.40;;
37791;SDS011;29527;55.766;37.570;2023-05-17T01:43:40;17.48;;;8.20;;
37791;SDS011;29527;55.766;37.570;2023-05-17T01:46:27;9.27;;;4.78;;
37791;SDS011;29527;55.766;37.570;2023-05-17T01:49:15;16.77;;;5.00;;
37791;SDS011;29527;55.766;37.570;2023-05-17T01:54:36;12.93;;;4.72;;
37791;SDS011;29527;55.766;37.570;2023-05-17T01:57:15;11.13;;;5.22;;
37791;SDS011;29527;55.766;37.570;2023-05-17T01:59:44;18.00;;;5.13;;
37791;SDS011;29527;55.766;37.570;2023-05-17T02:02:13;12.55;;;4.95;;
37791;SDS011;29527;55.766;37.570;2023-05-17T02:04:39;15.15;;;5.47;;
37791;SDS011;29527;55.766;37.570;2023-05-17T02:07:05;14.77;;;4.93;;
37791;SDS011;29527;55.766;37.570;2023-05-17T02:09:30;13.38;;;4.63;;
37791;SDS011;29527;55.766;37.570;2023-05-17T02:11:56;12.70;;;5.43;;
37791;SDS011;29527;55.766;37.570;2023-05-17T02:14:22;10.63;;;4.68;;
37791;SDS011;29527;55.766;37.570;2023-05-17T02:16:48;12.05;;;5.03;;
37791;SDS011;29527;55.766;37.570;2023-05-17T02:19:14;13.05;;;5.35;;
37791;SDS011;29527;55.766;37.570;2023-05-17T02:21:40;9.57;;;4.50;;
37791;SDS011;29527;55.766;37.570;2023-05-17T02:24:05;15.02;;;6.95;;
37791;SDS011;29527;55.766;37.570;2023-05-17T02:26:31;13.25;;;4.90;;
37791;SDS011;29527;55.766;37.570;2023-05-17T02:28:57;13.43;;;4.68;;
37791;SDS011;29527;55.766;37.570;2023-05-17T02:31:23;13.23;;;4.70;;
37791;SDS011;29527;55.766;37.570;2023-05-17T02:33:55;16.02;;;5.55;;
37791;SDS011;29527;55.766;37.570;2023-05-17T02:36:20;13.25;;;6.18;;
37791;SDS011;29527;55.766;37.570;2023-05-17T02:38:46;14.32;;;5.53;;
37791;SDS011;29527;55.766;37.570;2023-05-17T02:41:12;15.10;;;5.97;;
37791;SDS011;29527;55.766;37.570;2023-05-17T02:43:37;20.75;;;5.95;;
37791;SDS011;29527;55.766;37.570;2023-05-17T02:46:03;14.25;;;5.18;;
37791;SDS011;29527;55.766;37.570;2023-05-17T02:48:29;13.40;;;5.55;;
37791;SDS011;29527;55.766;37.570;2023-05-17T02:50:54;17.42;;;6.30;;
37791;SDS011;29527;55.766;37.570;2023-05-17T02:53:20;16.25;;;6.13;;
37791;SDS011;29527;55.766;37.570;2023-05-17T02:55:45;16.25;;;5.43;;
37791;SDS011;29527;55.766;37.570;2023-05-17T02:58:11;10.55;;;5.47;;
37791;SDS011;29527;55.766;37.570;2023-05-17T03:00:37;13.48;;;6.10;;
37791;SDS011;29527;55.766;37.570;2023-05-17T03:03:02;20.95;;;6.47;;
37791;SDS011;29527;55.766;37.570;2023-05-17T03:05:28;18.67;;;6.65;;
37791;SDS011;29527;55.766;37.570;2023-05-17T03:07:53;13.25;;;5.55;;
37791;SDS011;29527;55.766;37.570;2023-05-17T03:10:19;17.35;;;6.75;;
37791;SDS011;29527;55.766;37.570;2023-05-17T03:12:44;12.30;;;5.70;;
37791;SDS011;29527;55.766;37.570;2023-05-17T03:15:10;18.02;;;5.72;;
37791;SDS011;29527;55.766;37.570;2023-05-17T03:17:36;12.60;;;5.75;;
37791;SDS011;29527;55.766;37.570;2023-05-17T03:20:01;11.50;;;5.65;;
37791;SDS011;29527;55.766;37.570;2023-05-17T03:22:27;14.35;;;5.18;;
37791;SDS011;29527;55.766;37.570;2023-05-17T03:24:53;10.40;;;5.55;;
37791;SDS011;29527;55.766;37.570;2023-05-17T03:27:18;19.27;;;5.68;;
37791;SDS011;29527;55.766;37.570;2023-05-17T03:29:44;14.82;;;5.00;;
37791;SDS011;29527;55.766;37.570;2023-05-17T03:32:09;13.05;;;4.47;;
37791;SDS011;29527;55.766;37.570;2023-05-17T03:34:35;12.82;;;5.65;;
37791;SDS011;29527;55.766;37.570;2023-05-17T03:37:00;9.13;;;4.38;;
37791;SDS011;29527;55.766;37.570;2023-05-17T03:39:26;8.95;;;4.40;;
37791;SDS011;29527;55.766;37.570;2023-05-17T03:41:51;8.32;;;4.50;;
37791;SDS011;29527;55.766;37.570;2023-05-17T03:44:17;9.13;;;4.03;;
37791;SDS011;29527;55.766;37.570;2023-05-17T03:46:42;13.10;;;5.20;;
37791;SDS011;29527;55.766;37.570;2023-05-17T03:49:08;13.55;;;4.28;;
37791;SDS011;29527;55.766;37.570;2023-05-17T03:51:33;11.15;;;3.85;;
37791;SDS011;29527;55.766;37.570;2023-05-17T03:53:59;11.40;;;3.75;;
37791;SDS011;29527;55.766;37.570;2023-05-17T03:56:25;10.10;;;3.92;;
37791;SDS011;29527;55.766;37.570;2023-05-17T03:58:51;10.30;;;3.70;;
37791;SDS011;29527;55.766;37.570;2023-05-17T04:01:17;10.02;;;4.15;;
37791;SDS011;29527;55.766;37.570;2023-05-17T04:03:44;11.35;;;4.18;;
37791;SDS011;29527;55.766;37.570;2023-05-17T04:06:11;8.50;;;3.97;;
37791;SDS011;29527;55.766;37.570;2023-05-17T04:08:38;6.82;;;4.18;;
37791;SDS011;29527;55.766;37.570;2023-05-17T04:11:03;7.45;;;3.60;;
37791;SDS011;29527;55.766;37.570;2023-05-17T04:13:35;9.10;;;3.95;;
37791;SDS011;29527;55.766;37.570;2023-05-17T04:16:03;12.70;;;4.43;;
37791;SDS011;29527;55.766;37.570;2023-05-17T04:18:29;8.25;;;4.22;;
37791;SDS011;29527;55.766;37.570;2023-05-17T04:20:54;13.95;;;4.28;;
37791;SDS011;29527;55.766;37.570;2023-05-17T04:23:20;11.45;;;4.32;;
37791;SDS011;29527;55.766;37.570;2023-05-17T04:25:46;10.07;;;4.40;;
37791;SDS011;29527;55.766;37.570;2023-05-17T04:28:11;10.63;;;4.30;;
37791;SDS011;29527;55.766;37.570;2023-05-17T04:30:45;13.52;;;4.50;;
37791;SDS011;29527;55.766;37.570;2023-05-17T04:33:11;7.90;;;3.80;;
37791;SDS011;29527;55.766;37.570;2023-05-17T04:35:37;13.57;;;3.95;;
37791;SDS011;29527;55.766;37.570;2023-05-17T04:38:05;10.68;;;4.50;;
37791;SDS011;29527;55.766;37.570;2023-05-17T04:40:31;11.43;;;4.30;;
37791;SDS011;29527;55.766;37.570;2023-05-17T04:42:57;10.80;;;4.07;;
37791;SDS011;29527;55.766;37.570;2023-05-17T04:45:23;8.10;;;3.92;;
37791;SDS011;29527;55.766;37.570;2023-05-17T04:47:49;12.10;;;4.40;;
37791;SDS011;29527;55.766;37.570;2023-05-17T04:50:15;10.82;;;3.88;;
37791;SDS011;29527;55.766;37.570;2023-05-17T04:52:42;9.55;;;4.57;;
37791;SDS011;29527;55.766;37.570;2023-05-17T04:55:08;7.60;;;3.08;;
37791;SDS011;29527;55.766;37.570;2023-05-17T04:57:33;8.35;;;3.47;;
37791;SDS011;29527;55.766;37.570;2023-05-17T05:00:00;8.00;;;2.72;;
37791;SDS011;29527;55.766;37.570;2023-05-17T05:02:32;9.52;;;2.88;;
37791;SDS011;29527;55.766;37.570;2023-05-17T05:04:58;8.25;;;2.90;;
37791;SDS011;29527;55.766;37.570;2023-05-17T05:07:23;11.32;;;3.40;;
37791;SDS011;29527;55.766;37.570;2023-05-17T05:09:49;9.55;;;2.85;;
37791;SDS011;29527;55.766;37.570;2023-05-17T05:12:15;6.05;;;3.10;;
37791;SDS011;29527;55.766;37.570;2023-05-17T05:14:40;5.85;;;2.47;;
37791;SDS011;29527;55.766;37.570;2023-05-17T05:17:06;8.75;;;2.70;;
37791;SDS011;29527;55.766;37.570;2023-05-17T05:19:32;10.98;;;2.58;;
37791;SDS011;29527;55.766;37.570;2023-05-17T05:21:58;6.63;;;2.60;;
37791;SDS011;29527;55.766;37.570;2023-05-17T05:24:23;3.58;;;2.38;;
37791;SDS011;29527;55.766;37.570;2023-05-17T05:26:49;5.25;;;2.40;;
37791;SDS011;29527;55.766;37.570;2023-05-17T05:29:14;6.20;;;2.25;;
37791;SDS011;29527;55.766;37.570;2023-05-17T05:31:40;9.93;;;3.10;;
37791;SDS011;29527;55.766;37.570;2023-05-17T05:34:05;12.45;;;3.35;;
37791;SDS011;29527;55.766;37.570;2023-05-17T05:36:31;8.98;;;2.90;;
37791;SDS011;29527;55.766;37.570;2023-05-17T05:38:57;12.73;;;3.20;;
37791;SDS011;29527;55.766;37.570;2023-05-17T05:41:22;3.38;;;2.10;;
37791;SDS011;29527;55.766;37.570;2023-05-17T05:43:48;4.60;;;2.70;;
37791;SDS011;29527;55.766;37.570;2023-05-17T05:46:13;5.35;;;2.60;;
37791;SDS011;29527;55.766;37.570;2023-05-17T05:48:39;8.02;;;2.40;;
37791;SDS011;29527;55.766;37.570;2023-05-17T05:51:06;4.40;;;2.65;;
37791;SDS011;29527;55.766;37.570;2023-05-17T05:53:32;3.83;;;2.60;;
37791;SDS011;29527;55.766;37.570;2023-05-17T05:55:57;5.72;;;2.40;;
37791;SDS011;29527;55.766;37.570;2023-05-17T05:58:23;3.05;;;2.78;;
37791;SDS011;29527;55.766;37.570;2023-05-17T06:00:48;4.53;;;2.67;;
37791;SDS011;29527;55.766;37.570;2023-05-17T06:03:14;4.72;;;2.70;;
37791;SDS011;29527;55.766;37.570;2023-05-17T06:05:40;8.80;;;3.10;;
37791;SDS011;29527;55.766;37.570;2023-05-17T06:08:05;4.47;;;2.58;;
37791;SDS011;29527;55.766;37.570;2023-05-17T06:10:31;4.28;;;2.60;;
37791;SDS011;29527;55.766;37.570;2023-05-17T06:12:57;8.63;;;3.00;;
37791;SDS011;29527;55.766;37.570;2023-05-17T06:15:22;6.53;;;2.38;;
37791;SDS011;29527;55.766;37.570;2023-05-17T06:17:48;4.10;;;2.90;;
37791;SDS011;29527;55.766;37.570;2023-05-17T06:20:13;8.30;;;2.30;;
37791;SDS011;29527;55.766;37.570;2023-05-17T06:22:41;7.68;;;2.90;;
37791;SDS011;29527;55.766;37.570;2023-05-17T06:25:07;3.90;;;2.90;;
37791;SDS011;29527;55.766;37.570;2023-05-17T06:27:34;11.70;;;3.17;;
37791;SDS011;29527;55.766;37.570;2023-05-17T06:29:59;7.68;;;2.90;;
37791;SDS011;29527;55.766;37.570;2023-05-17T06:32:25;8.30;;;3.08;;
37791;SDS011;29527;55.766;37.570;2023-05-17T06:34:50;5.13;;;2.70;;
37791;SDS011;29527;55.766;37.570;2023-05-17T06:37:16;4.35;;;2.80;;
37791;SDS011;29527;55.766;37.570;2023-05-17T06:39:42;3.60;;;2.35;;
37791;SDS011;29527;55.766;37.570;2023-05-17T06:42:07;4.30;;;2.50;;
37791;SDS011;29527;55.766;37.570;2023-05-17T06:44:33;2.67;;;2.47;;
37791;SDS011;29527;55.766;37.570;2023-05-17T06:46:58;4.05;;;2.30;;
37791;SDS011;29527;55.766;37.570;2023-05-17T06:49:25;2.55;;;2.35;;
37791;SDS011;29527;55.766;37.570;2023-05-17T06:51:50;4.57;;;2.58;;
37791;SDS011;29527;55.766;37.570;2023-05-17T06:54:18;7.78;;;2.30;;
37791;SDS011;29527;55.766;37.570;2023-05-17T06:56:44;6.40;;;2.60;;
37791;SDS011;29527;55.766;37.570;2023-05-17T06:59:09;4.03;;;2.78;;
37791;SDS011;29527;55.766;37.570;2023-05-17T07:01:35;5.00;;;2.30;;
37791;SDS011;29527;55.766;37.570;2023-05-17T07:04:00;5.80;;;2.78;;
37791;SDS011;29527;55.766;37.570;2023-05-17T07:06:26;4.18;;;2.75;;
37791;SDS011;29527;55.766;37.570;2023-05-17T07:08:52;5.63;;;2.78;;
37791;SDS011;29527;55.766;37.570;2023-05-17T07:11:18;2.30;;;2.10;;
37791;SDS011;29527;55.766;37.570;2023-05-17T07:13:44;6.65;;;2.55;;
37791;SDS011;29527;55.766;37.570;2023-05-17T07:16:09;4.32;;;2.67;;
37791;SDS011;29527;55.766;37.570;2023-05-17T07:18:35;6.03;;;2.58;;
37791;SDS011;29527;55.766;37.570;2023-05-17T07:21:00;5.47;;;2.85;;
37791;SDS011;29527;55.766;37.570;2023-05-17T07:23:26;6.65;;;2.75;;
37791;SDS011;29527;55.766;37.570;2023-05-17T07:25:51;5.82;;;2.53;;
37791;SDS011;29527;55.766;37.570;2023-05-17T07:28:17;5.30;;;2.80;;
37791;SDS011;29527;55.766;37.570;2023-05-17T07:30:42;2.90;;;2.42;;
37791;SDS011;29527;55.766;37.570;2023-05-17T07:33:08;7.00;;;2.63;;
37791;SDS011;29527;55.766;37.570;2023-05-17T07:35:33;10.63;;;3.15;;
37791;SDS011;29527;55.766;37.570;2023-05-17T07:37:59;5.28;;;2.92;;
37791;SDS011;29527;55.766;37.570;2023-05-17T07:40:24;3.83;;;3.00;;
37791;SDS011;29527;55.766;37.570;2023-05-17T07:42:50;6.50;;;2.75;;
37791;SDS011;29527;55.766;37.570;2023-05-17T07:45:16;7.53;;;3.45;;
37791;SDS011;29527;55.766;37.570;2023-05-17T07:47:41;5.43;;;3.53;;
37791;SDS011;29527;55.766;37.570;2023-05-17T07:50:07;4.90;;;2.97;;
37791;SDS011;29527;55.766;37.570;2023-05-17T07:52:33;3.33;;;2.97;;
37791;SDS011;29527;55.766;37.570;2023-05-17T07:54:58;6.82;;;3.25;;
37791;SDS011;29527;55.766;37.570;2023-05-17T07:57:24;3.47;;;3.15;;
37791;SDS011;29527;55.766;37.570;2023-05-17T07:59:49;7.95;;;3.25;;
37791;SDS011;29527;55.766;37.570;2023-05-17T08:02:15;7.20;;;3.20;;
37791;SDS011;29527;55.766;37.570;2023-05-17T08:04:40;5.50;;;2.50;;
37791;SDS011;29527;55.766;37.570;2023-05-17T08:07:06;4.82;;;2.83;;
37791;SDS011;29527;55.766;37.570;2023-05-17T08:09:32;11.18;;;3.05;;
37791;SDS011;29527;55.766;37.570;2023-05-17T08:11:57;5.70;;;2.55;;
37791;SDS011;29527;55.766;37.570;2023-05-17T08:14:23;3.40;;;2.15;;
37791;SDS011;29527;55.766;37.570;2023-05-17T08:16:49;6.97;;;2.28;;
37791;SDS011;29527;55.766;37.570;2023-05-17T08:19:16;3.75;;;2.30;;
37791;SDS011;29527;55.766;37.570;2023-05-17T08:21:42;5.38;;;2.45;;
37791;SDS011;29527;55.766;37.570;2023-05-17T08:24:08;6.63;;;2.53;;
37791;SDS011;29527;55.766;37.570;2023-05-17T08:26:34;3.92;;;2.58;;
37791;SDS011;29527;55.766;37.570;2023-05-17T08:29:03;7.55;;;2.08;;
37791;SDS011;29527;55.766;37.570;2023-05-17T08:31:29;7.20;;;2.28;;
37791;SDS011;29527;55.766;37.570;2023-05-17T08:33:55;9.20;;;2.85;;
37791;SDS011;29527;55.766;37.570;2023-05-17T08:36:21;3.92;;;2.88;;
37791;SDS011;29527;55.766;37.570;2023-05-17T08:38:47;7.40;;;2.38;;
37791;SDS011;29527;55.766;37.570;2023-05-17T08:41:12;6.53;;;1.92;;
37791;SDS011;29527;55.766;37.570;2023-05-17T08:43:38;5.63;;;2.33;;
37791;SDS011;29527;55.766;37.570;2023-05-17T08:46:04;5.57;;;2.28;;
37791;SDS011;29527;55.766;37.570;2023-05-17T08:48:30;5.07;;;2.20;;
37791;SDS011;29527;55.766;37.570;2023-05-17T08:51:01;5.95;;;2.40;;
37791;SDS011;29527;55.766;37.570;2023-05-17T08:53:27;7.82;;;2.40;;
37791;SDS011;29527;55.766;37.570;2023-05-17T08:55:56;5.63;;;2.40;;
37791;SDS011;29527;55.766;37.570;2023-05-17T08:58:32;4.93;;;2.20;;
37791;SDS011;29527;55.766;37.570;2023-05-17T09:01:01;5.07;;;1.98;;
37791;SDS011;29527;55.766;37.570;2023-05-17T09:03:27;4.70;;;2.03;;
37791;SDS011;29527;55.766;37.570;2023-05-17T09:16:55;4.25;;;2.35;;
37791;SDS011;29527;55.766;37.570;2023-05-17T09:19:22;11.82;;;2.50;;
37791;SDS011;29527;55.766;37.570;2023-05-17T09:21:47;9.35;;;2.20;;
37791;SDS011;29527;55.766;37.570;2023-05-17T09:24:13;9.52;;;3.25;;
37791;SDS011;29527;55.766;37.570;2023-05-17T09:26:43;6.70;;;2.33;;
37791;SDS011;29527;55.766;37.570;2023-05-17T09:29:11;5.50;;;2.50;;
37791;SDS011;29527;55.766;37.570;2023-05-17T09:31:38;4.80;;;2.08;;
37791;SDS011;29527;55.766;37.570;2023-05-17T09:34:05;6.47;;;2.50;;
37791;SDS011;29527;55.766;37.570;2023-05-17T09:36:32;6.43;;;2.30;;
37791;SDS011;29527;55.766;37.570;2023-05-17T09:39:00;5.80;;;2.55;;
37791;SDS011;29527;55.766;37.570;2023-05-17T09:44:07;4.43;;;2.50;;
37791;SDS011;29527;55.766;37.570;2023-05-17T09:46:34;4.75;;;2.33;;
37791;SDS011;29527;55.766;37.570;2023-05-17T09:49:01;7.75;;;2.20;;
37791;SDS011;29527;55.766;37.570;2023-05-17T09:51:40;3.25;;;2.10;;
37791;SDS011;29527;55.766;37.570;2023-05-17T09:54:07;5.43;;;2.60;;
37791;SDS011;29527;55.766;37.570;2023-05-17T09:56:36;3.65;;;2.50;;
37791;SDS011;29527;55.766;37.570;2023-05-17T09:59:03;6.85;;;2.60;;
37791;SDS011;29527;55.766;37.570;2023-05-17T10:01:35;2.90;;;2.20;;
37791;SDS011;29527;55.766;37.570;2023-05-17T10:04:04;6.22;;;2.70;;
37791;SDS011;29527;55.766;37.570;2023-05-17T10:06:36;6.07;;;2.47;;
37791;SDS011;29527;55.766;37.570;2023-05-17T10:09:03;4.95;;;2.30;;
37791;SDS011;29527;55.766;37.570;2023-05-17T10:11:31;7.40;;;2.40;;
37791;SDS011;29527;55.766;37.570;2023-05-17T10:14:04;4.80;;;2.38;;
37791;SDS011;29527;55.766;37.570;2023-05-17T10:16:38;6.32;;;2.55;;
37791;SDS011;29527;55.766;37.570;2023-05-17T10:19:04;6.88;;;2.60;;
37791;SDS011;29527;55.766;37.570;2023-05-17T10:21:30;28.23;;;4.20;;
37791;SDS011;29527;55.766;37.570;2023-05-17T10:24:00;6.93;;;2.75;;
37791;SDS011;29527;55.766;37.570;2023-05-17T10:26:27;2.45;;;2.25;;
37791;SDS011;29527;55.766;37.570;2023-05-17T10:28:57;7.90;;;2.53;;
37791;SDS011;29527;55.766;37.570;2023-05-17T10:31:28;4.28;;;2.58;;
37791;SDS011;29527;55.766;37.570;2023-05-17T10:33:55;15.68;;;2.53;;
37791;SDS011;29527;55.766;37.570;2023-05-17T10:36:22;6.07;;;2.45;;
37791;SDS011;29527;55.766;37.570;2023-05-17T10:38:49;8.18;;;2.67;;
37791;SDS011;29527;55.766;37.570;2023-05-17T10:41:16;4.20;;;2.40;;
37791;SDS011;29527;55.766;37.570;2023-05-17T10:43:43;3.10;;;2.53;;
37791;SDS011;29527;55.766;37.570;2023-05-17T10:46:16;6.18;;;2.35;;
37791;SDS011;29527;55.766;37.570;2023-05-17T10:48:51;5.93;;;2.63;;
37791;SDS011;29527;55.766;37.570;2023-05-17T10:51:22;7.38;;;2.72;;
37791;SDS011;29527;55.766;37.570;2023-05-17T10:54:07;4.85;;;2.75;;
37791;SDS011;29527;55.766;37.570;2023-05-17T10:56:41;5.07;;;2.55;;
37791;SDS011;29527;55.766;37.570;2023-05-17T11:09:48;6.43;;;2.67;;
37791;SDS011;29527;55.766;37.570;2023-05-17T11:12:30;3.03;;;2.50;;
37791;SDS011;29527;55.766;37.570;2023-05-17T11:14:59;7.78;;;2.85;;
37791;SDS011;29527;55.766;37.570;2023-05-17T11:17:25;8.23;;;2.63;;
37791;SDS011;29527;55.766;37.570;2023-05-17T11:22:21;8.05;;;3.75;;
37791;SDS011;29527;55.766;37.570;2023-05-17T11:24:48;4.03;;;3.05;;
37791;SDS011;29527;55.766;37.570;2023-05-17T11:27:17;5.80;;;2.42;;
37791;SDS011;29527;55.766;37.570;2023-05-17T11:29:46;4.82;;;3.10;;
37791;SDS011;29527;55.766;37.570;2023-05-17T11:32:12;6.38;;;2.40;;
37791;SDS011;29527;55.766;37.570;2023-05-17T11:34:38;4.50;;;2.75;;
37791;SDS011;29527;55.766;37.570;2023-05-17T11:37:03;2.75;;;2.40;;
37791;SDS011;29527;55.766;37.570;2023-05-17T11:39:35;4.50;;;3.13;;
37791;SDS011;29527;55.766;37.570;2023-05-17T11:42:01;4.63;;;2.33;;
37791;SDS011;29527;55.766;37.570;2023-05-17T11:44:33;6.28;;;2.25;;
37791;SDS011;29527;55.766;37.570;2023-05-17T11:46:59;10.07;;;2.40;;
37791;SDS011;29527;55.766;37.570;2023-05-17T11:49:27;4.60;;;2.58;;
37791;SDS011;29527;55.766;37.570;2023-05-17T11:51:55;4.20;;;2.33;;
37791;SDS011;29527;55.766;37.570;2023-05-17T11:54:21;5.85;;;2.65;;
37791;SDS011;29527;55.766;37.570;2023-05-17T11:56:48;7.53;;;2.40;;
37791;SDS011;29527;55.766;37.570;2023-05-17T11:59:18;5.53;;;2.72;;
37791;SDS011;29527;55.766;37.570;2023-05-17T12:01:44;3.33;;;2.30;;
37791;SDS011;29527;55.766;37.570;2023-05-17T12:04:11;3.33;;;2.60;;
37791;SDS011;29527;55.766;37.570;2023-05-17T12:06:36;3.95;;;2.53;;
37791;SDS011;29527;55.766;37.570;2023-05-17T12:09:03;7.85;;;2.55;;
37791;SDS011;29527;55.766;37.570;2023-05-17T12:11:30;8.05;;;3.10;;
37791;SDS011;29527;55.766;37.570;2023-05-17T12:13:55;5.82;;;2.75;;
37791;SDS011;29527;55.766;37.570;2023-05-17T12:16:21;7.32;;;2.40;;
37791;SDS011;29527;55.766;37.570;2023-05-17T12:18:48;6.95;;;2.80;;
37791;SDS011;29527;55.766;37.570;2023-05-17T12:21:15;5.35;;;2.38;;
37791;SDS011;29527;55.766;37.570;2023-05-17T12:23:43;6.05;;;2.08;;
37791;SDS011;29527;55.766;37.570;2023-05-17T12:26:11;6.32;;;2.30;;
37791;SDS011;29527;55.766;37.570;2023-05-17T12:28:44;7.03;;;2.28;;
37791;SDS011;29527;55.766;37.570;2023-05-17T12:31:14;5.93;;;2.17;;
37791;SDS011;29527;55.766;37.570;2023-05-17T12:33:41;8.50;;;2.50;;
37791;SDS011;29527;55.766;37.570;2023-05-17T12:36:09;5.85;;;2.28;;
37791;SDS011;29527;55.766;37.570;2023-05-17T12:38:36;7.15;;;2.42;;
37791;SDS011;29527;55.766;37.570;2023-05-17T12:41:03;3.38;;;2.00;;
37791;SDS011;29527;55.766;37.570;2023-05-17T12:43:33;5.63;;;1.80;;
37791;SDS011;29527;55.766;37.570;2023-05-17T12:46:01;2.85;;;1.80;;
37791;SDS011;29527;55.766;37.570;2023-05-17T12:48:29;5.60;;;2.03;;
37791;SDS011;29527;55.766;37.570;2023-05-17T12:50:56;8.35;;;2.22;;
37791;SDS011;29527;55.766;37.570;2023-05-17T12:53:48;6.70;;;2.92;;
37791;SDS011;29527;55.766;37.570;2023-05-17T12:56:21;6.20;;;2.05;;
37791;SDS011;29527;55.766;37.570;2023-05-17T13:01:51;10.45;;;2.10;;
37791;SDS011;29527;55.766;37.570;2023-05-17T13:04:18;5.07;;;2.25;;
37791;SDS011;29527;55.766;37.570;2023-05-17T13:06:48;5.45;;;2.25;;
37791;SDS011;29527;55.766;37.570;2023-05-17T13:09:22;6.70;;;2.10;;
37791;SDS011;29527;55.766;37.570;2023-05-17T13:11:53;5.35;;;1.75;;
37791;SDS011;29527;55.766;37.570;2023-05-17T13:14:33;4.50;;;1.95;;
37791;SDS011;29527;55.766;37.570;2023-05-17T13:17:18;6.22;;;2.58;;
37791;SDS011;29527;55.766;37.570;2023-05-17T13:20:08;7.95;;;2.13;;
37791;SDS011;29527;55.766;37.570;2023-05-17T13:22:34;2.95;;;1.83;;
37791;SDS011;29527;55.766;37.570;2023-05-17T13:25:01;5.30;;;1.80;;
37791;SDS011;29527;55.766;37.570;2023-05-17T13:27:31;7.95;;;2.10;;
37791;SDS011;29527;55.766;37.570;2023-05-17T13:29:56;6.68;;;2.17;;
37791;SDS011;29527;55.766;37.570;2023-05-17T13:32:22;3.65;;;2.03;;
37791;SDS011;29527;55.766;37.570;2023-05-17T13:34:48;7.72;;;2.00;;
37791;SDS011;29527;55.766;37.570;2023-05-17T13:37:13;9.55;;;2.03;;
37791;SDS011;29527;55.766;37.570;2023-05-17T13:39:39;3.45;;;2.00;;
37791;SDS011;29527;55.766;37.570;2023-05-17T13:42:05;5.55;;;2.20;;
37791;SDS011;29527;55.766;37.570;2023-05-17T13:44:31;3.70;;;2.10;;
37791;SDS011;29527;55.766;37.570;2023-05-17T13:46:57;6.45;;;1.98;;
37791;SDS011;29527;55.766;37.570;2023-05-17T13:49:22;3.45;;;2.10;;
37791;SDS011;29527;55.766;37.570;2023-05-17T13:51:47;7.35;;;2.00;;
37791;SDS011;29527;55.766;37.570;2023-05-17T13:54:13;6.13;;;1.80;;
37791;SDS011;29527;55.766;37.570;2023-05-17T13:56:39;7.13;;;1.90;;
37791;SDS011;29527;55.766;37.570;2023-05-17T13:59:04;6.05;;;1.85;;
37791;SDS011;29527;55.766;37.570;2023-05-17T14:01:30;4.78;;;2.22;;
37791;SDS011;29527;55.766;37.570;2023-05-17T14:03:55;7.65;;;2.42;;
37791;SDS011;29527;55.766;37.570;2023-05-17T14:06:21;7.60;;;2.00;;
37791;SDS011;29527;55.766;37.570;2023-05-17T14:08:47;5.18;;;2.30;;
37791;SDS011;29527;55.766;37.570;2023-05-17T14:11:12;5.70;;;1.75;;
37791;SDS011;29527;55.766;37.570;2023-05-17T14:13:38;5.07;;;2.03;;
37791;SDS011;29527;55.766;37.570;2023-05-17T14:16:04;4.80;;;2.30;;
37791;SDS011;29527;55.766;37.570;2023-05-17T14:18:30;5.10;;;2.20;;
37791;SDS011;29527;55.766;37.570;2023-05-17T14:20:56;7.78;;;2.50;;
37791;SDS011;29527;55.766;37.570;2023-05-17T14:23:22;4.85;;;2.28;;
37791;SDS011;29527;55.766;37.570;2023-05-17T14:25:47;7.53;;;2.30;;
37791;SDS011;29527;55.766;37.570;2023-05-17T14:28:13;10.20;;;2.15;;
37791;SDS011;29527;55.766;37.570;2023-05-17T14:30:42;4.88;;;1.80;;
37791;SDS011;29527;55.766;37.570;2023-05-17T14:33:07;4.18;;;2.10;;
37791;SDS011;29527;55.766;37.570;2023-05-17T14:35:33;4.85;;;2.03;;
37791;SDS011;29527;55.766;37.570;2023-05-17T14:37:59;6.90;;;2.10;;
37791;SDS011;29527;55.766;37.570;2023-05-17T14:40:24;4.68;;;2.15;;
37791;SDS011;29527;55.766;37.570;2023-05-17T14:42:50;7.00;;;1.80;;
37791;SDS011;29527;55.766;37.570;2023-05-17T14:45:16;6.60;;;1.85;;
37791;SDS011;29527;55.766;37.570;2023-05-17T14:47:42;8.30;;;2.72;;
37791;SDS011;29527;55.766;37.570;2023-05-17T14:50:07;8.35;;;2.10;;
37791;SDS011;29527;55.766;37.570;2023-05-17T14:52:33;6.68;;;2.28;;
37791;SDS011;29527;55.766;37.570;2023-05-17T14:54:59;9.25;;;2.28;;
37791;SDS011;29527;55.766;37.570;2023-05-17T14:57:25;6.35;;;2.28;;
37791;SDS011;29527;55.766;37.570;2023-05-17T14:59:50;7.97;;;2.63;;
37791;SDS011;29527;55.766;37.570;2023-05-17T15:02:16;9.07;;;3.00;;
37791;SDS011;29527;55.766;37.570;2023-05-17T15:04:42;4.65;;;1.92;;
37791;SDS011;29527;55.766;37.570;2023-05-17T15:07:08;7.10;;;2.45;;
37791;SDS011;29527;55.766;37.570;2023-05-17T15:09:39;10.75;;;2.55;;
37791;SDS011;29527;55.766;37.570;2023-05-17T15:12:07;6.95;;;2.90;;
37791;SDS011;29527;55.766;37.570;2023-05-17T15:14:33;7.80;;;2.75;;